Time;durP1;ratioP1;P1;durP2;ratioP2;P2;SDS_P1;SDS_P2;PMS_P1;PMS_P2;Temp;Humidity;BMP_temperature;BMP_pressure;BME280_temperature;BME280_humidity;BME280_pressure;Samples;Min_cycle;Max_cycle;Signal;HPM_P1;HPM_P2
2020/12/18 00:00:36;;;;;;;15.27;13.87;;;4.20;99.90;;;;;;5092651;28;20640;-90
2020/12/18 00:03:02;;;;;;;17.07;15.37;;;4.20;99.90;;;;;;5089511;28;20625;-90
2020/12/18 00:05:32;;;;;;;17.37;15.43;;;4.10;99.90;;;;;;5087989;28;20609;-88
2020/12/18 00:08:00;;;;;;;17.97;16.27;;;4.10;99.90;;;;;;5086945;28;20670;-89
2020/12/18 00:10:27;;;;;;;17.40;15.70;;;4.10;99.90;;;;;;5085062;28;20652;-88
2020/12/18 00:12:54;;;;;;;15.57;14.00;;;4.10;99.90;;;;;;5089910;27;20621;-88
2020/12/18 00:15:25;;;;;;;17.23;15.50;;;4.10;99.90;;;;;;5092205;28;21176;-89
2020/12/18 00:17:51;;;;;;;17.37;15.60;;;4.10;99.90;;;;;;5091306;28;20662;-89
2020/12/18 00:20:18;;;;;;;17.53;15.83;;;4.10;99.90;;;;;;5092299;28;20646;-89
2020/12/18 00:22:44;;;;;;;18.00;16.37;;;4.10;99.90;;;;;;5086146;28;20636;-88
2020/12/18 00:25:10;;;;;;;18.07;16.40;;;4.10;99.90;;;;;;5090663;28;20658;-89
2020/12/18 00:27:38;;;;;;;16.60;14.90;;;4.10;99.90;;;;;;5094458;28;21155;-89
2020/12/18 00:30:06;;;;;;;17.57;15.97;;;4.10;99.90;;;;;;5090148;28;20650;-90
2020/12/18 00:32:35;;;;;;;17.67;15.80;;;4.10;99.90;;;;;;5085783;28;20688;-88
2020/12/18 00:35:02;;;;;;;16.63;15.13;;;4.10;99.90;;;;;;5090933;28;20620;-90
2020/12/18 00:37:28;;;;;;;15.73;14.30;;;4.00;99.90;;;;;;5084422;28;20617;-90
2020/12/18 00:39:55;;;;;;;15.67;14.37;;;4.00;99.90;;;;;;5090392;28;21207;-90
2020/12/18 00:42:21;;;;;;;16.00;14.60;;;3.90;99.90;;;;;;5084467;28;20618;-90
2020/12/18 00:44:48;;;;;;;16.57;15.07;;;3.90;99.90;;;;;;5079371;28;20690;-89
2020/12/18 00:47:16;;;;;;;15.10;13.80;;;3.90;99.90;;;;;;5090697;28;20664;-89
2020/12/18 00:49:43;;;;;;;14.80;13.60;;;4.00;99.90;;;;;;5093256;28;20746;-89
2020/12/18 00:52:09;;;;;;;15.47;13.93;;;4.00;99.90;;;;;;5095416;28;20703;-88
2020/12/18 00:54:36;;;;;;;15.77;14.23;;;3.90;99.90;;;;;;5085232;28;20640;-88
2020/12/18 00:57:03;;;;;;;14.33;12.93;;;3.80;99.90;;;;;;5092220;28;20609;-89
2020/12/18 00:59:30;;;;;;;14.77;13.47;;;3.80;99.90;;;;;;5082897;28;21283;-90
2020/12/18 01:01:57;;;;;;;15.17;13.87;;;3.90;99.90;;;;;;5084526;28;20660;-89
2020/12/18 01:04:24;;;;;;;15.13;12.90;;;3.90;99.90;;;;;;5086966;28;20671;-87
2020/12/18 01:06:52;;;;;;;14.17;12.90;;;3.90;99.90;;;;;;5086816;28;20600;-88
2020/12/18 01:09:19;;;;;;;14.30;13.00;;;3.80;99.90;;;;;;5092003;28;20634;-89
2020/12/18 01:11:45;;;;;;;13.80;12.70;;;3.70;99.90;;;;;;5089346;28;21175;-88
2020/12/18 01:14:13;;;;;;;12.77;11.70;;;3.70;99.90;;;;;;5094754;28;21192;-89
2020/12/18 01:16:39;;;;;;;13.67;12.57;;;3.80;99.90;;;;;;5095110;28;20753;-88
2020/12/18 01:19:05;;;;;;;12.97;11.77;;;3.80;99.90;;;;;;5096933;28;20970;-88
2020/12/18 01:21:34;;;;;;;12.83;11.73;;;3.80;99.90;;;;;;5091117;28;21460;-88
2020/12/18 01:24:00;;;;;;;13.57;12.30;;;3.80;99.90;;;;;;5095896;28;21003;-88
2020/12/18 01:26:27;;;;;;;13.60;12.13;;;3.80;99.90;;;;;;5092292;28;20825;-89
2020/12/18 01:28:54;;;;;;;12.03;11.10;;;3.80;99.90;;;;;;5096705;28;20606;-88
2020/12/18 01:31:20;;;;;;;13.03;11.70;;;3.70;99.90;;;;;;5099862;28;20614;-88
2020/12/18 01:33:46;;;;;;;11.47;10.47;;;3.70;99.90;;;;;;5112148;28;20633;-88
2020/12/18 01:36:14;;;;;;;13.40;12.20;;;3.70;99.90;;;;;;5107636;28;20638;-89
2020/12/18 01:38:41;;;;;;;13.03;11.73;;;3.70;99.90;;;;;;5086020;28;20653;-89
2020/12/18 01:41:07;;;;;;;13.27;12.07;;;3.80;99.90;;;;;;5095220;28;20671;-88
2020/12/18 01:43:33;;;;;;;13.93;11.50;;;3.80;99.90;;;;;;5103195;28;20667;-90
2020/12/18 01:46:06;;;;;;;13.53;12.33;;;3.90;99.90;;;;;;5099139;28;20632;-88
2020/12/18 01:48:33;;;;;;;13.27;12.17;;;3.90;99.90;;;;;;5093233;28;20569;-87
2020/12/18 01:51:01;;;;;;;12.93;11.63;;;4.00;99.90;;;;;;5091617;28;20672;-88
2020/12/18 01:53:29;;;;;;;13.90;12.70;;;4.00;99.90;;;;;;5091440;28;20612;-88
2020/12/18 01:55:57;;;;;;;13.50;12.30;;;4.00;99.90;;;;;;5087941;28;20641;-89
2020/12/18 01:58:24;;;;;;;13.17;12.00;;;4.00;99.90;;;;;;5105406;28;20629;-89
2020/12/18 02:00:52;;;;;;;13.73;12.33;;;4.10;99.90;;;;;;5097726;28;20681;-89
2020/12/18 02:03:18;;;;;;;12.53;11.33;;;4.20;99.90;;;;;;5096781;28;20654;-89
2020/12/18 02:05:45;;;;;;;10.30;9.40;;;4.10;99.90;;;;;;5085980;28;21031;-88
2020/12/18 02:08:11;;;;;;;12.20;11.00;;;4.10;99.90;;;;;;5098079;28;20638;-89
2020/12/18 02:10:38;;;;;;;11.00;10.00;;;4.10;99.90;;;;;;5099911;28;20708;-90
2020/12/18 02:13:05;;;;;;;12.20;11.10;;;4.10;99.90;;;;;;5097395;28;20636;-90
2020/12/18 02:15:35;;;;;;;12.00;10.90;;;4.10;99.90;;;;;;5098499;28;20638;-89
2020/12/18 02:18:03;;;;;;;13.47;12.37;;;4.20;99.90;;;;;;5093282;28;21171;-88
2020/12/18 02:20:29;;;;;;;15.33;13.97;;;4.20;99.90;;;;;;5093284;28;21242;-89
2020/12/18 02:22:56;;;;;;;14.80;13.53;;;4.20;99.90;;;;;;5085999;28;20659;-88
2020/12/18 02:25:23;;;;;;;13.73;12.33;;;4.20;99.90;;;;;;5092084;28;20650;-88
2020/12/18 02:27:50;;;;;;;12.53;11.17;;;4.10;99.90;;;;;;5087659;28;20634;-88
2020/12/18 02:30:16;;;;;;;13.20;12.10;;;4.00;99.90;;;;;;5101060;28;20658;-89
2020/12/18 02:32:44;;;;;;;12.17;10.90;;;4.00;99.90;;;;;;5093470;28;21174;-88
2020/12/18 02:35:10;;;;;;;13.47;12.17;;;3.90;99.90;;;;;;5099222;27;20616;-89
2020/12/18 02:37:37;;;;;;;12.70;11.60;;;4.00;99.90;;;;;;5090569;28;20613;-88
2020/12/18 02:40:05;;;;;;;12.30;11.10;;;4.00;99.90;;;;;;5088939;28;20659;-88
2020/12/18 02:42:31;;;;;;;11.57;10.57;;;4.00;99.90;;;;;;5095132;28;20638;-88
2020/12/18 02:44:58;;;;;;;12.60;11.60;;;3.90;99.90;;;;;;5090865;28;20942;-89
2020/12/18 02:47:25;;;;;;;15.00;13.50;;;3.80;99.90;;;;;;5090460;28;20965;-89
2020/12/18 02:49:51;;;;;;;11.93;10.80;;;3.90;99.90;;;;;;5086587;27;21454;-89
2020/12/18 02:52:17;;;;;;;13.57;12.27;;;3.80;99.90;;;;;;5085940;28;21582;-89
2020/12/18 02:54:44;;;;;;;14.40;13.20;;;3.80;99.90;;;;;;5095785;28;20610;-88
2020/12/18 02:57:10;;;;;;;13.67;12.47;;;3.90;99.90;;;;;;5096178;28;20669;-88
2020/12/18 02:59:36;;;;;;;14.10;12.90;;;3.80;99.90;;;;;;5087599;28;20673;-88
2020/12/18 03:02:09;;;;;;;14.83;13.43;;;3.80;99.90;;;;;;5088346;28;20632;-88
2020/12/18 03:04:35;;;;;;;15.80;14.23;;;4.00;99.90;;;;;;5089123;28;21059;-89
2020/12/18 03:07:02;;;;;;;13.07;11.97;;;4.00;99.90;;;;;;5093423;28;21142;-90
2020/12/18 03:09:30;;;;;;;15.30;13.80;;;4.00;99.90;;;;;;5094180;28;20631;-89
2020/12/18 03:11:57;;;;;;;15.33;13.90;;;4.10;99.90;;;;;;5097889;28;20616;-89
2020/12/18 03:14:24;;;;;;;17.77;16.07;;;4.10;99.90;;;;;;5091310;28;20613;-89
2020/12/18 03:16:50;;;;;;;19.57;17.67;;;4.20;99.90;;;;;;5096342;28;21026;-90
2020/12/18 03:19:18;;;;;;;18.93;17.03;;;4.30;99.90;;;;;;5090683;28;20637;-89
2020/12/18 03:21:44;;;;;;;24.77;17.17;;;4.30;99.90;;;;;;5096425;28;20628;-89
2020/12/18 03:24:10;;;;;;;15.93;14.23;;;4.30;99.90;;;;;;5083831;28;20717;-89
2020/12/18 03:26:37;;;;;;;17.33;15.43;;;4.30;99.90;;;;;;5093952;28;21110;-90
2020/12/18 03:29:03;;;;;;;20.50;15.60;;;4.30;99.90;;;;;;5092043;28;20628;-89
2020/12/18 03:31:30;;;;;;;20.70;14.97;;;4.40;99.90;;;;;;5084837;28;20648;-90
2020/12/18 03:33:57;;;;;;;18.87;16.00;;;4.50;99.90;;;;;;5094158;28;20617;-89
2020/12/18 03:36:24;;;;;;;18.63;16.20;;;4.50;99.90;;;;;;5097357;28;20606;-88
2020/12/18 03:38:53;;;;;;;19.07;17.07;;;4.40;99.90;;;;;;5094600;28;20638;-89
2020/12/18 03:41:19;;;;;;;18.87;16.90;;;4.30;99.90;;;;;;5094515;28;20658;-89
2020/12/18 03:43:46;;;;;;;17.87;16.03;;;4.40;99.90;;;;;;5096023;27;20675;-89
2020/12/18 03:46:14;;;;;;;20.80;18.30;;;4.40;99.90;;;;;;5095661;28;20626;-88
2020/12/18 03:48:40;;;;;;;18.70;17.00;;;4.50;99.90;;;;;;5086044;28;21154;-88
2020/12/18 03:51:07;;;;;;;16.67;15.07;;;4.60;99.90;;;;;;5084709;28;20653;-88
2020/12/18 03:53:34;;;;;;;16.87;15.27;;;4.70;99.90;;;;;;5094403;28;20622;-88
2020/12/18 03:56:00;;;;;;;16.50;14.90;;;4.60;99.90;;;;;;5089253;28;20611;-88
2020/12/18 03:58:27;;;;;;;15.63;14.23;;;4.60;99.90;;;;;;5089324;28;20618;-88
2020/12/18 04:00:53;;;;;;;15.47;14.07;;;4.70;99.90;;;;;;5101169;28;20715;-88
2020/12/18 04:03:19;;;;;;;15.40;14.10;;;4.70;99.90;;;;;;5097725;28;20626;-88
2020/12/18 04:05:46;;;;;;;15.93;14.60;;;4.80;99.90;;;;;;5090643;28;20673;-89
2020/12/18 04:08:12;;;;;;;15.30;13.90;;;4.80;99.90;;;;;;5099384;28;20711;-89
2020/12/18 04:10:39;;;;;;;16.63;14.80;;;4.90;99.90;;;;;;5090760;28;20658;-88
2020/12/18 04:13:06;;;;;;;14.67;13.47;;;4.90;99.90;;;;;;5087952;28;20636;-88
2020/12/18 04:15:32;;;;;;;15.67;14.30;;;4.90;99.90;;;;;;5089209;28;20626;-89
2020/12/18 04:17:58;;;;;;;14.50;13.20;;;4.90;99.90;;;;;;5094967;28;20639;-86
2020/12/18 04:20:25;;;;;;;14.80;13.43;;;5.00;99.90;;;;;;5091851;28;20672;-89
2020/12/18 04:22:51;;;;;;;15.27;13.87;;;5.00;99.90;;;;;;5092081;28;20632;-89
2020/12/18 04:25:17;;;;;;;14.87;13.43;;;5.10;99.90;;;;;;5086028;28;20674;-89
2020/12/18 04:27:44;;;;;;;15.77;14.47;;;5.10;99.90;;;;;;5103176;28;20629;-90
2020/12/18 04:30:11;;;;;;;16.00;14.63;;;5.10;99.90;;;;;;5091183;28;20643;-89
2020/12/18 04:32:37;;;;;;;15.97;14.47;;;5.20;99.90;;;;;;5088601;28;21027;-89
2020/12/18 04:35:03;;;;;;;15.33;13.80;;;5.20;99.90;;;;;;5094885;28;21172;-90
2020/12/18 04:37:31;;;;;;;16.10;14.70;;;5.20;99.90;;;;;;5090814;28;20641;-91
2020/12/18 04:39:57;;;;;;;14.83;13.60;;;5.20;99.90;;;;;;5093430;28;21370;-91
2020/12/18 04:42:27;;;;;;;15.63;14.17;;;5.30;99.90;;;;;;5098530;28;20637;-91
2020/12/18 04:44:54;;;;;;;16.00;14.70;;;5.40;99.90;;;;;;5092085;28;20712;-91
2020/12/18 04:47:22;;;;;;;15.17;13.63;;;5.40;99.90;;;;;;5088961;28;20625;-91
2020/12/18 04:49:51;;;;;;;15.20;13.83;;;5.40;99.90;;;;;;5087830;28;20727;-92
2020/12/18 04:52:22;;;;;;;14.13;12.93;;;5.40;99.90;;;;;;5096478;28;20989;-91
2020/12/18 04:54:51;;;;;;;14.80;13.50;;;5.30;99.90;;;;;;5099991;27;20632;-92
2020/12/18 04:57:19;;;;;;;15.60;14.10;;;5.30;99.90;;;;;;5093328;28;20991;-92
2020/12/18 04:59:48;;;;;;;16.97;15.57;;;5.40;99.90;;;;;;5117737;28;20628;-92
2020/12/18 05:02:18;;;;;;;15.30;13.80;;;5.30;99.90;;;;;;5104198;28;20596;-91
2020/12/18 05:04:44;;;;;;;15.43;13.97;;;5.20;99.90;;;;;;5097909;28;20667;-92
2020/12/18 05:07:13;;;;;;;16.00;14.67;;;5.30;99.90;;;;;;5094467;28;20626;-91
2020/12/18 05:09:41;;;;;;;15.57;14.03;;;5.20;99.90;;;;;;5094659;28;20667;-92
2020/12/18 05:12:09;;;;;;;16.23;14.73;;;5.10;99.90;;;;;;5100316;28;20646;-92
2020/12/18 05:14:35;;;;;;;19.13;14.60;;;5.10;99.90;;;;;;5098339;28;20616;-92
2020/12/18 05:17:06;;;;;;;15.77;14.13;;;5.00;99.90;;;;;;5104004;28;20630;-92
2020/12/18 05:19:38;;;;;;;16.70;14.80;;;5.10;99.90;;;;;;5094885;28;20635;-92
2020/12/18 05:22:05;;;;;;;14.73;13.43;;;5.20;99.90;;;;;;5097567;28;20686;-91
2020/12/18 05:24:35;;;;;;;16.10;14.50;;;5.30;99.90;;;;;;5095844;28;21022;-91
2020/12/18 05:27:04;;;;;;;15.43;13.60;;;5.20;99.90;;;;;;5094375;28;20622;-90
2020/12/18 05:29:31;;;;;;;14.20;13.00;;;5.30;99.90;;;;;;5098194;28;20658;-91
2020/12/18 05:32:00;;;;;;;16.13;14.73;;;5.10;99.90;;;;;;5097985;28;20582;-90
2020/12/18 05:34:28;;;;;;;14.53;13.10;;;5.10;99.90;;;;;;5094842;28;20613;-91
2020/12/18 05:36:55;;;;;;;14.77;13.47;;;5.10;99.90;;;;;;5089792;28;20658;-91
2020/12/18 05:39:22;;;;;;;16.07;14.67;;;5.10;99.90;;;;;;5104811;28;21252;-90
2020/12/18 05:41:57;;;;;;;15.63;14.03;;;5.10;99.90;;;;;;5086660;28;20670;-90
2020/12/18 05:44:27;;;;;;;17.07;15.57;;;5.10;99.90;;;;;;5093334;28;20631;-90
2020/12/18 05:47:01;;;;;;;16.43;15.00;;;5.20;99.90;;;;;;5093160;28;20702;-90
2020/12/18 05:49:30;;;;;;;14.03;12.87;;;5.20;99.90;;;;;;5095421;28;20629;-90
2020/12/18 05:51:58;;;;;;;16.47;15.00;;;5.30;99.90;;;;;;5093696;27;21182;-90
2020/12/18 05:54:32;;;;;;;14.80;13.60;;;5.20;99.90;;;;;;5093598;28;20635;-90
2020/12/18 05:57:00;;;;;;;15.00;13.80;;;5.20;99.90;;;;;;5089553;28;20736;-90
2020/12/18 05:59:29;;;;;;;16.07;14.57;;;5.20;99.90;;;;;;5094506;28;20992;-90
2020/12/18 06:01:59;;;;;;;15.77;13.70;;;5.20;99.90;;;;;;5094606;28;20852;-89
2020/12/18 06:04:26;;;;;;;15.90;14.60;;;5.20;99.90;;;;;;5087229;28;20664;-89
2020/12/18 06:06:54;;;;;;;14.40;13.20;;;5.20;99.90;;;;;;5081919;28;20633;-89
2020/12/18 06:09:23;;;;;;;13.63;12.53;;;5.20;99.90;;;;;;5094553;28;20657;-91
2020/12/18 06:11:51;;;;;;;15.47;14.07;;;5.20;99.90;;;;;;5079244;28;20618;-89
2020/12/18 06:14:19;;;;;;;15.77;14.20;;;5.30;99.90;;;;;;5090366;28;20637;-89
2020/12/18 06:16:49;;;;;;;16.40;14.93;;;5.30;99.90;;;;;;5090441;28;20627;-89
2020/12/18 06:19:17;;;;;;;16.13;14.63;;;5.30;99.90;;;;;;5097287;28;20649;-89
2020/12/18 06:21:51;;;;;;;15.73;14.43;;;5.20;99.90;;;;;;5086055;28;20632;-89
2020/12/18 06:24:18;;;;;;;17.00;15.60;;;5.20;99.90;;;;;;5089075;28;20669;-89
2020/12/18 06:26:53;;;;;;;16.37;14.97;;;5.10;99.90;;;;;;5087743;28;20691;-89
2020/12/18 06:29:23;;;;;;;16.43;15.10;;;5.20;99.90;;;;;;5087459;28;20630;-89
2020/12/18 06:31:50;;;;;;;15.37;14.07;;;5.20;99.90;;;;;;5088703;28;21156;-90
2020/12/18 06:34:23;;;;;;;16.23;14.87;;;5.30;99.90;;;;;;5093697;28;20631;-90
2020/12/18 06:37:00;;;;;;;16.87;15.27;;;5.20;99.90;;;;;;5090593;28;20652;-90
2020/12/18 06:39:30;;;;;;;14.27;13.07;;;5.20;99.90;;;;;;5094607;28;20714;-89
2020/12/18 06:42:15;;;;;;;15.20;13.87;;;5.30;99.90;;;;;;5091476;28;20605;-91
2020/12/18 06:44:44;;;;;;;15.17;13.67;;;5.30;99.90;;;;;;5098856;28;20684;-90
2020/12/18 06:47:15;;;;;;;13.33;12.23;;;5.40;99.90;;;;;;5085312;28;20671;-90
2020/12/18 06:50:01;;;;;;;15.60;14.20;;;5.40;99.90;;;;;;5099226;28;20641;-90
2020/12/18 06:52:45;;;;;;;15.80;14.40;;;5.40;99.90;;;;;;5089437;28;20684;-90
2020/12/18 06:55:13;;;;;;;13.37;12.27;;;5.20;99.90;;;;;;5088855;28;20639;-90
2020/12/18 06:57:41;;;;;;;13.50;12.37;;;5.20;99.90;;;;;;5095793;28;20637;-90
2020/12/18 07:00:27;;;;;;;14.00;12.80;;;5.20;99.90;;;;;;5088386;28;20713;-91
2020/12/18 07:02:55;;;;;;;14.87;13.43;;;5.30;99.90;;;;;;5090293;28;20627;-90
2020/12/18 07:05:35;;;;;;;15.50;14.20;;;5.40;99.90;;;;;;5099271;28;20701;-91
2020/12/18 07:08:04;;;;;;;15.30;13.93;;;5.40;99.90;;;;;;5097448;28;20634;-90
2020/12/18 07:10:34;;;;;;;16.00;14.33;;;5.40;99.90;;;;;;5094787;28;21371;-90
2020/12/18 07:13:06;;;;;;;16.40;15.00;;;5.40;99.90;;;;;;5092136;28;20630;-90
2020/12/18 07:15:53;;;;;;;15.70;14.40;;;5.30;99.90;;;;;;5090163;28;21235;-90
2020/12/18 07:18:24;;;;;;;15.10;13.70;;;5.30;99.90;;;;;;5083155;28;20715;-91
2020/12/18 07:20:52;;;;;;;14.37;13.17;;;5.30;99.90;;;;;;5080963;28;21270;-90
2020/12/18 07:23:20;;;;;;;15.73;14.33;;;5.40;99.90;;;;;;5084335;28;20640;-89
2020/12/18 07:25:47;;;;;;;16.40;14.90;;;5.30;99.90;;;;;;5082093;28;20811;-88
2020/12/18 07:28:14;;;;;;;14.33;13.10;;;5.30;99.90;;;;;;5097259;28;21187;-89
2020/12/18 07:30:42;;;;;;;15.37;13.90;;;5.30;99.90;;;;;;5093546;28;20652;-89
2020/12/18 07:33:10;;;;;;;13.17;12.07;;;5.20;99.90;;;;;;5090528;28;20701;-89
2020/12/18 07:35:41;;;;;;;14.40;13.20;;;5.20;99.90;;;;;;5092386;28;20727;-89
2020/12/18 07:38:15;;;;;;;27.83;16.97;;;5.30;99.90;;;;;;5091910;28;20747;-90
2020/12/18 07:40:42;;;;;;;14.57;13.07;;;5.40;99.90;;;;;;5087517;28;20630;-90
2020/12/18 07:43:10;;;;;;;17.47;14.73;;;5.30;99.90;;;;;;5087922;28;20663;-90
2020/12/18 07:45:45;;;;;;;18.97;17.27;;;5.20;99.90;;;;;;5087720;28;20664;-91
2020/12/18 07:48:15;;;;;;;17.30;15.70;;;5.10;99.90;;;;;;5090373;28;21154;-91
2020/12/18 07:50:57;;;;;;;16.33;14.50;;;5.10;99.90;;;;;;5083867;28;20643;-91
2020/12/18 07:53:23;;;;;;;15.17;13.60;;;5.20;99.90;;;;;;5081893;28;21173;-90
2020/12/18 07:56:01;;;;;;;15.80;14.50;;;5.30;99.90;;;;;;5087768;28;20643;-90
2020/12/18 07:58:28;;;;;;;15.40;14.07;;;5.30;99.90;;;;;;5089624;28;20660;-90
2020/12/18 08:01:07;;;;;;;16.23;14.93;;;5.40;99.90;;;;;;5094004;28;20626;-90
2020/12/18 08:03:38;;;;;;;17.90;16.37;;;5.30;99.90;;;;;;5094417;28;20622;-89
2020/12/18 08:06:12;;;;;;;16.70;15.30;;;5.40;99.90;;;;;;5087870;28;20666;-89
2020/12/18 08:08:40;;;;;;;18.50;14.43;;;5.50;99.90;;;;;;5088382;28;21123;-89
2020/12/18 08:11:14;;;;;;;16.80;15.20;;;5.50;99.90;;;;;;5092091;28;21117;-90
2020/12/18 08:13:41;;;;;;;15.77;14.37;;;5.70;99.90;;;;;;5103352;28;20632;-89
2020/12/18 08:16:14;;;;;;;16.47;15.00;;;5.70;99.90;;;;;;5088083;28;20613;-89
2020/12/18 08:18:51;;;;;;;16.80;15.40;;;5.80;99.90;;;;;;5090669;28;20647;-90
2020/12/18 08:21:21;;;;;;;15.73;14.43;;;5.80;99.90;;;;;;5114017;28;20645;-89
2020/12/18 08:23:55;;;;;;;15.40;14.10;;;6.00;99.90;;;;;;5097845;28;20787;-90
2020/12/18 08:26:23;;;;;;;14.90;13.60;;;6.10;99.90;;;;;;5099241;28;20635;-90
2020/12/18 08:28:51;;;;;;;17.30;15.90;;;6.10;99.90;;;;;;5092931;28;20659;-88
2020/12/18 08:31:19;;;;;;;15.07;13.77;;;6.10;99.90;;;;;;5093243;28;21236;-89
2020/12/18 08:33:54;;;;;;;15.63;14.33;;;6.20;99.90;;;;;;5091151;28;20641;-89
2020/12/18 08:36:28;;;;;;;15.77;14.13;;;6.20;99.90;;;;;;5084265;28;20623;-89
2020/12/18 08:39:04;;;;;;;13.87;12.57;;;6.30;99.90;;;;;;5093608;28;20688;-90
2020/12/18 08:41:44;;;;;;;15.43;14.10;;;6.40;99.90;;;;;;5089088;28;20648;-89
2020/12/18 08:44:12;;;;;;;16.00;14.60;;;6.40;99.90;;;;;;5090178;28;20617;-90
2020/12/18 08:46:40;;;;;;;14.00;12.67;;;6.40;99.90;;;;;;5097463;28;20974;-89
2020/12/18 08:49:15;;;;;;;12.97;11.87;;;6.50;99.90;;;;;;5088549;28;20700;-89
2020/12/18 08:51:42;;;;;;;15.40;14.03;;;6.50;99.90;;;;;;5091129;28;21118;-89
2020/12/18 08:54:30;;;;;;;14.03;12.63;;;6.60;99.90;;;;;;5086415;28;20661;-90
2020/12/18 08:57:25;;;;;;;14.23;12.77;;;6.60;99.90;;;;;;5087890;28;20655;-89
2020/12/18 09:00:04;;;;;;;14.87;13.47;;;6.70;99.90;;;;;;5042127;28;20718;-89
2020/12/18 09:02:33;;;;;;;12.00;10.90;;;6.70;99.90;;;;;;5085965;28;20660;-90
2020/12/18 09:05:14;;;;;;;14.17;12.77;;;6.70;99.90;;;;;;5088417;28;20695;-91
2020/12/18 09:07:42;;;;;;;14.20;12.50;;;6.70;99.90;;;;;;5087961;28;20659;-91
2020/12/18 09:10:10;;;;;;;16.93;15.33;;;6.70;99.90;;;;;;5091995;28;20727;-89
2020/12/18 09:12:43;;;;;;;15.43;13.83;;;6.90;99.90;;;;;;5089697;28;20632;-90
2020/12/18 09:15:20;;;;;;;15.77;14.27;;;6.90;99.90;;;;;;5084877;28;20622;-89
2020/12/18 09:17:59;;;;;;;13.57;12.13;;;6.90;99.90;;;;;;5094769;28;20674;-90
2020/12/18 09:20:26;;;;;;;13.70;12.37;;;7.20;99.90;;;;;;5089395;28;20622;-90
2020/12/18 09:23:12;;;;;;;13.13;11.73;;;7.30;99.90;;;;;;5091507;28;20656;-89
2020/12/18 09:25:41;;;;;;;14.00;12.70;;;7.30;99.90;;;;;;5093175;28;20673;-89
2020/12/18 09:28:17;;;;;;;14.07;12.73;;;7.30;99.90;;;;;;5090835;28;20650;-91
2020/12/18 09:30:47;;;;;;;13.70;11.50;;;7.40;99.90;;;;;;5096502;28;20753;-90
2020/12/18 09:33:32;;;;;;;13.23;11.93;;;7.40;99.90;;;;;;5088788;28;20634;-89
2020/12/18 09:36:32;;;;;;;12.67;11.50;;;7.60;99.90;;;;;;5092496;28;20641;-92
2020/12/18 09:38:59;;;;;;;13.30;12.00;;;7.70;99.90;;;;;;5088564;28;20666;-90
2020/12/18 09:41:26;;;;;;;15.23;12.10;;;7.70;99.90;;;;;;5093671;28;20643;-90
2020/12/18 09:43:52;;;;;;;14.63;13.23;;;7.70;99.90;;;;;;5096465;28;20608;-89
2020/12/18 09:46:23;;;;;;;13.97;12.57;;;8.00;99.90;;;;;;5087244;28;20672;-89
2020/12/18 09:48:50;;;;;;;17.20;15.50;;;8.20;99.90;;;;;;5095448;28;20663;-89
2020/12/18 09:51:18;;;;;;;16.27;14.57;;;8.60;99.90;;;;;;5093891;28;20645;-88
2020/12/18 09:53:45;;;;;;;16.07;14.43;;;8.80;99.90;;;;;;5094304;28;20613;-89
2020/12/18 09:56:14;;;;;;;15.87;14.17;;;9.00;99.90;;;;;;5093061;28;20652;-89
2020/12/18 09:58:41;;;;;;;13.03;11.83;;;8.90;99.90;;;;;;5102157;28;21542;-88
2020/12/18 10:01:07;;;;;;;13.67;12.23;;;9.20;99.90;;;;;;5087441;28;20698;-89
2020/12/18 10:03:36;;;;;;;13.77;12.10;;;9.40;99.90;;;;;;5085753;28;20627;-88
2020/12/18 10:06:03;;;;;;;13.27;12.17;;;9.50;99.90;;;;;;5093046;28;20626;-88
2020/12/18 10:08:29;;;;;;;14.57;13.17;;;9.80;99.90;;;;;;5085233;28;20759;-89
2020/12/18 10:10:56;;;;;;;15.30;12.67;;;9.90;99.90;;;;;;5100529;28;20627;-88
2020/12/18 10:13:22;;;;;;;14.80;13.37;;;9.90;99.90;;;;;;5086050;28;20999;-88
2020/12/18 10:15:50;;;;;;;14.13;12.73;;;9.90;99.90;;;;;;5090463;28;20622;-89
2020/12/18 10:18:16;;;;;;;13.60;12.20;;;10.00;99.90;;;;;;5090978;28;20649;-90
2020/12/18 10:20:43;;;;;;;12.27;10.97;;;10.10;99.90;;;;;;5099770;28;20626;-89
2020/12/18 10:23:10;;;;;;;13.17;11.97;;;10.30;99.90;;;;;;5089901;28;20647;-89
2020/12/18 10:25:36;;;;;;;14.80;13.30;;;10.40;99.90;;;;;;5094309;28;20657;-88
2020/12/18 10:28:04;;;;;;;14.50;11.20;;;10.50;99.90;;;;;;5095310;28;20650;-89
2020/12/18 10:30:30;;;;;;;12.30;11.30;;;10.60;99.90;;;;;;5087279;28;20936;-90
2020/12/18 10:32:56;;;;;;;12.93;11.63;;;11.00;99.90;;;;;;5094566;28;20626;-89
2020/12/18 10:35:23;;;;;;;14.43;11.33;;;10.90;99.90;;;;;;5097984;28;20992;-90
2020/12/18 10:37:50;;;;;;;13.30;9.53;;;11.00;99.90;;;;;;5083710;28;20653;-90
2020/12/18 10:40:18;;;;;;;12.23;11.07;;;11.20;99.90;;;;;;5090278;28;20639;-89
2020/12/18 10:42:44;;;;;;;10.37;9.30;;;11.40;99.90;;;;;;5087735;28;20671;-89
2020/12/18 10:45:10;;;;;;;10.80;9.80;;;11.60;99.90;;;;;;5091259;28;20664;-90
2020/12/18 10:47:37;;;;;;;11.13;10.00;;;11.70;99.90;;;;;;5094733;28;20646;-90
2020/12/18 10:50:03;;;;;;;12.37;11.23;;;11.80;99.90;;;;;;5098252;28;20714;-89
2020/12/18 10:52:29;;;;;;;12.20;11.10;;;12.00;99.90;;;;;;5092720;28;20604;-90
2020/12/18 10:54:56;;;;;;;11.33;10.23;;;12.00;99.90;;;;;;5082993;28;20680;-90
2020/12/18 10:57:23;;;;;;;11.23;9.73;;;12.00;99.90;;;;;;5085266;28;20659;-88
2020/12/18 10:59:49;;;;;;;13.40;10.90;;;12.20;99.90;;;;;;5098331;28;20726;-90
2020/12/18 11:02:15;;;;;;;11.90;10.80;;;12.60;99.90;;;;;;5088028;28;20637;-92
2020/12/18 11:04:42;;;;;;;10.77;9.63;;;12.60;99.90;;;;;;5097343;28;20710;-91
2020/12/18 11:07:09;;;;;;;12.20;10.07;;;13.20;99.90;;;;;;5087769;28;20662;-91
2020/12/18 11:09:35;;;;;;;11.80;10.47;;;13.10;99.90;;;;;;5091947;28;20616;-90
2020/12/18 11:12:02;;;;;;;11.87;10.50;;;13.30;99.90;;;;;;5087350;28;20621;-90
2020/12/18 11:14:32;;;;;;;11.03;9.90;;;13.30;99.90;;;;;;5097368;28;20780;-91
2020/12/18 11:16:59;;;;;;;13.23;11.60;;;13.20;99.90;;;;;;5091648;28;20640;-91
2020/12/18 11:19:25;;;;;;;11.43;10.40;;;13.40;99.90;;;;;;5097575;28;20624;-91
2020/12/18 11:21:52;;;;;;;11.37;10.27;;;13.60;99.90;;;;;;5096708;28;20734;-92
2020/12/18 11:24:20;;;;;;;11.70;9.30;;;13.60;99.90;;;;;;5083213;28;20720;-91
2020/12/18 11:26:50;;;;;;;13.50;10.03;;;13.70;99.90;;;;;;5085678;28;20787;-91
2020/12/18 11:29:17;;;;;;;12.30;11.10;;;13.80;99.90;;;;;;5099181;28;20581;-89
2020/12/18 11:31:44;;;;;;;11.03;9.50;;;14.00;99.90;;;;;;5096574;28;20635;-91
2020/12/18 11:34:13;;;;;;;10.77;9.77;;;13.70;99.90;;;;;;5099603;28;20660;-92
2020/12/18 11:36:40;;;;;;;11.73;10.60;;;14.40;99.90;;;;;;5094393;28;20641;-91
2020/12/18 11:39:06;;;;;;;12.30;9.63;;;14.60;99.50;;;;;;5097712;28;20637;-91
2020/12/18 11:41:33;;;;;;;11.23;10.13;;;14.60;99.10;;;;;;5090892;28;20624;-92
2020/12/18 11:43:59;;;;;;;10.57;9.40;;;14.80;99.20;;;;;;5113146;28;20618;-91
2020/12/18 11:46:29;;;;;;;11.63;10.50;;;14.90;99.40;;;;;;5110029;28;20668;-91
2020/12/18 11:48:56;;;;;;;11.03;9.93;;;15.10;98.80;;;;;;5084794;28;20625;-90
2020/12/18 11:51:28;;;;;;;9.43;8.53;;;15.00;98.60;;;;;;5089596;28;20627;-90
2020/12/18 11:53:54;;;;;;;10.77;9.67;;;14.80;99.20;;;;;;5089341;28;20629;-90
2020/12/18 11:56:21;;;;;;;11.27;9.07;;;15.20;98.40;;;;;;5094303;28;20653;-90
2020/12/18 11:58:47;;;;;;;9.40;8.50;;;15.40;98.10;;;;;;5081235;28;20636;-88
2020/12/18 12:01:21;;;;;;;10.87;9.77;;;15.30;98.50;;;;;;5081103;28;20653;-88
2020/12/18 12:03:48;;;;;;;10.10;9.10;;;15.70;97.80;;;;;;5084755;28;20675;-89
2020/12/18 12:06:15;;;;;;;10.37;9.40;;;15.50;97.70;;;;;;5088747;28;20673;-89
2020/12/18 12:08:41;;;;;;;10.23;9.23;;;15.50;97.80;;;;;;5082789;28;20748;-88
2020/12/18 12:11:08;;;;;;;9.30;8.40;;;15.80;97.00;;;;;;5089034;28;20686;-88
2020/12/18 12:13:34;;;;;;;9.40;8.50;;;15.90;97.10;;;;;;5090971;28;20629;-88
2020/12/18 12:16:01;;;;;;;10.80;8.83;;;16.40;96.70;;;;;;5089189;28;20656;-88
2020/12/18 12:18:27;;;;;;;9.20;8.23;;;16.20;96.70;;;;;;5096074;28;20628;-88
2020/12/18 12:20:53;;;;;;;8.73;7.97;;;16.40;96.30;;;;;;5081422;28;20625;-88
2020/12/18 12:23:20;;;;;;;11.40;8.87;;;16.30;96.70;;;;;;5090884;28;20631;-88
2020/12/18 12:25:47;;;;;;;10.00;8.97;;;16.20;96.40;;;;;;5086454;28;20693;-88
2020/12/18 12:28:13;;;;;;;9.10;8.17;;;16.60;95.90;;;;;;5087083;28;20616;-89
2020/12/18 12:30:39;;;;;;;9.30;7.70;;;16.80;95.90;;;;;;5093809;28;20632;-88
2020/12/18 12:33:06;;;;;;;9.70;8.70;;;17.30;95.50;;;;;;5087385;28;20648;-89
2020/12/18 12:35:32;;;;;;;9.23;8.43;;;17.40;94.80;;;;;;5093438;28;20613;-89
2020/12/18 12:37:59;;;;;;;8.97;8.17;;;17.70;94.50;;;;;;5089167;28;20741;-89
2020/12/18 12:40:26;;;;;;;8.77;8.00;;;17.60;94.40;;;;;;5080483;28;20612;-89
2020/12/18 12:42:52;;;;;;;10.33;8.00;;;17.70;94.00;;;;;;5084298;28;20639;-89